createdAt,value
2018-12-16T00:00:03.838Z,93.80
2018-12-16T00:02:34.879Z,94.10
2018-12-16T00:05:05.890Z,94.30
2018-12-16T00:07:37.076Z,94.00
2018-12-16T00:10:06.695Z,94.60
2018-12-16T00:12:35.842Z,94.80
2018-12-16T00:15:05.617Z,94.60
2018-12-16T00:17:34.759Z,95.00
2018-12-16T00:20:04.013Z,95.20
2018-12-16T00:22:33.261Z,95.30
2018-12-16T00:25:02.968Z,95.00
2018-12-16T00:27:31.990Z,95.20
2018-12-16T00:30:01.078Z,94.80
2018-12-16T00:32:30.131Z,95.30
2018-12-16T00:34:59.138Z,95.70
2018-12-16T00:37:28.157Z,95.30
2018-12-16T00:39:57.217Z,95.60
2018-12-16T00:42:26.223Z,95.70
2018-12-16T00:44:55.281Z,95.20
2018-12-16T00:47:24.492Z,95.50
2018-12-16T00:49:53.539Z,95.20
2018-12-16T00:52:22.621Z,95.60
2018-12-16T00:54:51.694Z,95.80
2018-12-16T00:57:20.797Z,95.10
2018-12-16T00:59:49.871Z,95.10
2018-12-16T01:02:24.036Z,95.30
2018-12-16T01:04:53.188Z,95.60
2018-12-16T01:07:22.242Z,95.30
2018-12-16T01:09:51.321Z,95.30
2018-12-16T01:12:20.305Z,95.20
2018-12-16T01:14:49.455Z,95.30
2018-12-16T01:17:18.579Z,95.30
2018-12-16T01:19:47.931Z,95.50
2018-12-16T01:22:17.179Z,95.30
2018-12-16T01:24:46.469Z,95.80
2018-12-16T01:27:15.494Z,95.90
2018-12-16T01:29:44.757Z,95.10
2018-12-16T01:32:13.821Z,95.50
2018-12-16T01:34:43.282Z,95.60
2018-12-16T01:37:12.317Z,95.20
2018-12-16T01:39:41.381Z,95.20
2018-12-16T01:42:10.585Z,96.10
2018-12-16T01:44:39.606Z,95.90
2018-12-16T01:47:08.653Z,95.60
2018-12-16T01:49:37.655Z,95.90
2018-12-16T01:52:06.746Z,95.90
2018-12-16T01:54:35.870Z,96.00
2018-12-16T01:57:04.971Z,96.50
2018-12-16T01:59:34.033Z,96.00
2018-12-16T02:02:03.247Z,96.20
2018-12-16T02:04:32.475Z,96.60
2018-12-16T02:07:01.554Z,96.50
2018-12-16T02:09:31.304Z,96.60
2018-12-16T02:12:00.314Z,96.90
2018-12-16T02:14:29.381Z,96.50
2018-12-16T02:16:58.649Z,96.40
2018-12-16T02:19:27.673Z,96.30
2018-12-16T02:21:56.695Z,96.10
2018-12-16T02:24:26.018Z,96.90
2018-12-16T02:26:55.019Z,97.10
2018-12-16T02:29:24.090Z,96.90
2018-12-16T02:31:53.149Z,97.10
2018-12-16T02:34:23.300Z,97.20
2018-12-16T02:36:52.433Z,96.90
2018-12-16T02:39:21.462Z,96.60
2018-12-16T02:41:50.482Z,96.40
2018-12-16T02:44:19.524Z,97.20
2018-12-16T02:46:48.623Z,96.50
2018-12-16T02:49:17.703Z,96.10
2018-12-16T02:51:46.731Z,96.30
2018-12-16T02:54:15.767Z,96.10
2018-12-16T02:56:45.104Z,96.30
2018-12-16T02:59:14.160Z,96.30
2018-12-16T03:01:48.068Z,96.20
2018-12-16T03:04:17.303Z,96.80
2018-12-16T03:06:46.292Z,96.10
2018-12-16T03:09:15.282Z,96.50
2018-12-16T03:11:44.552Z,96.00
2018-12-16T03:14:13.598Z,96.30
2018-12-16T03:16:42.902Z,96.00
2018-12-16T03:19:11.937Z,96.20
2018-12-16T03:21:40.980Z,96.20
2018-12-16T03:24:10.105Z,96.20
2018-12-16T03:26:39.173Z,95.80
2018-12-16T03:29:08.202Z,96.00
2018-12-16T03:31:37.523Z,95.50
2018-12-16T03:34:07.559Z,96.10
2018-12-16T03:36:36.587Z,95.70
2018-12-16T03:39:07.349Z,95.70
2018-12-16T03:41:37.235Z,95.70
2018-12-16T03:44:06.282Z,95.20
2018-12-16T03:46:35.700Z,96.00
2018-12-16T03:49:04.890Z,95.30
2018-12-16T03:51:33.972Z,95.30
2018-12-16T03:54:03.061Z,95.30
2018-12-16T03:56:32.058Z,94.90
2018-12-16T03:59:18.611Z,94.60
2018-12-16T04:01:53.012Z,95.10
2018-12-16T04:04:22.020Z,95.00
2018-12-16T04:06:51.281Z,95.00
2018-12-16T04:09:20.361Z,94.70
2018-12-16T04:11:49.375Z,94.80
2018-12-16T04:14:18.566Z,94.60
2018-12-16T04:16:49.584Z,94.90
2018-12-16T04:19:18.642Z,94.90
2018-12-16T04:21:47.643Z,95.00
2018-12-16T04:24:17.164Z,94.70
2018-12-16T04:26:46.166Z,94.70
2018-12-16T04:29:15.206Z,95.10
2018-12-16T04:31:44.211Z,95.20
2018-12-16T04:34:13.321Z,94.60
2018-12-16T04:36:42.344Z,94.70
2018-12-16T04:39:11.392Z,94.60
2018-12-16T04:41:40.431Z,94.80
2018-12-16T04:44:09.428Z,94.70
2018-12-16T04:46:38.469Z,94.70
2018-12-16T04:49:07.517Z,94.50
2018-12-16T04:51:36.699Z,94.80
2018-12-16T04:54:05.964Z,94.60
2018-12-16T04:56:35.007Z,94.90
2018-12-16T04:59:04.053Z,95.00
2018-12-16T05:01:33.148Z,95.10
2018-12-16T05:04:02.147Z,94.60
2018-12-16T05:06:31.311Z,94.50
2018-12-16T05:09:00.431Z,94.80
2018-12-16T05:11:29.749Z,94.80
2018-12-16T05:13:58.798Z,94.40
2018-12-16T05:16:27.826Z,94.90
2018-12-16T05:18:56.990Z,94.50
2018-12-16T05:21:25.998Z,93.90
2018-12-16T05:23:55.025Z,94.40
2018-12-16T05:26:24.273Z,94.20
2018-12-16T05:28:53.471Z,94.60
2018-12-16T05:31:22.493Z,94.70
2018-12-16T05:33:51.530Z,94.50
2018-12-16T05:36:20.589Z,94.40
2018-12-16T05:38:50.033Z,94.50
2018-12-16T05:41:19.021Z,94.50
2018-12-16T05:43:48.045Z,94.20
2018-12-16T05:46:17.059Z,94.00
2018-12-16T05:48:46.159Z,94.00
2018-12-16T05:51:15.279Z,94.30
2018-12-16T05:53:48.544Z,94.20
2018-12-16T05:56:15.481Z,93.60
2018-12-16T05:58:44.503Z,94.10
2018-12-16T06:01:13.547Z,93.80
2018-12-16T06:03:43.273Z,94.00
2018-12-16T06:06:12.268Z,94.00
2018-12-16T06:08:41.267Z,94.00
2018-12-16T06:11:10.447Z,94.30
2018-12-16T06:13:39.475Z,94.10
2018-12-16T06:16:08.473Z,94.10
2018-12-16T06:18:37.759Z,93.60
2018-12-16T06:21:06.776Z,93.90
2018-12-16T06:23:35.810Z,94.00
2018-12-16T06:26:04.959Z,93.50
2018-12-16T06:28:33.962Z,93.70
2018-12-16T06:31:02.976Z,92.90
2018-12-16T06:33:31.968Z,93.50
2018-12-16T06:36:01.058Z,93.80
2018-12-16T06:38:30.034Z,93.10
2018-12-16T06:40:59.053Z,93.60
2018-12-16T06:43:28.196Z,93.30
2018-12-16T06:45:57.292Z,93.10
2018-12-16T06:48:27.620Z,93.00
2018-12-16T06:50:56.826Z,92.90
2018-12-16T06:53:25.844Z,93.30
2018-12-16T06:55:54.832Z,94.10
2018-12-16T06:58:23.964Z,93.40
2018-12-16T07:00:53.016Z,93.00
2018-12-16T07:03:22.039Z,93.40
2018-12-16T07:05:51.022Z,93.10
2018-12-16T07:08:20.061Z,92.40
2018-12-16T07:10:49.318Z,92.90
2018-12-16T07:13:18.339Z,93.30
2018-12-16T07:15:47.387Z,93.10
2018-12-16T07:18:16.452Z,92.90
2018-12-16T07:20:45.454Z,93.40
2018-12-16T07:23:14.552Z,93.40
2018-12-16T07:25:43.629Z,92.70
2018-12-16T07:28:12.702Z,92.40
2018-12-16T07:30:41.825Z,92.40
2018-12-16T07:33:10.880Z,92.30
2018-12-16T07:35:40.259Z,92.20
2018-12-16T07:38:09.412Z,92.10
2018-12-16T07:40:38.554Z,92.40
2018-12-16T07:43:07.685Z,92.00
2018-12-16T07:45:37.179Z,92.40
2018-12-16T07:48:06.404Z,92.20
2018-12-16T07:50:35.821Z,92.60
2018-12-16T07:53:04.945Z,92.40
2018-12-16T07:55:34.361Z,92.10
2018-12-16T07:58:03.386Z,92.40
2018-12-16T08:00:32.395Z,92.10
2018-12-16T08:03:03.433Z,92.20
2018-12-16T08:05:32.493Z,92.40
2018-12-16T08:08:01.561Z,92.50
2018-12-16T08:10:30.715Z,92.30
2018-12-16T08:13:00.758Z,92.30
2018-12-16T08:15:29.827Z,92.10
2018-12-16T08:17:58.876Z,91.90
2018-12-16T08:20:27.983Z,91.80
2018-12-16T08:23:03.481Z,91.90
2018-12-16T08:25:32.928Z,91.10
2018-12-16T08:28:01.954Z,91.30
2018-12-16T08:30:31.071Z,91.20
2018-12-16T08:33:00.092Z,91.00
2018-12-16T08:35:29.439Z,91.60
2018-12-16T08:37:58.547Z,91.10
2018-12-16T08:40:27.602Z,90.70
2018-12-16T08:42:56.697Z,90.90
2018-12-16T08:45:25.751Z,91.00
2018-12-16T08:47:54.755Z,91.10
2018-12-16T08:50:23.866Z,90.90
2018-12-16T08:52:53.137Z,91.30
2018-12-16T08:55:22.197Z,91.60
2018-12-16T08:57:51.406Z,91.60
2018-12-16T09:00:20.430Z,91.00
2018-12-16T09:02:49.651Z,90.70
2018-12-16T09:05:18.946Z,91.00
2018-12-16T09:07:48.344Z,90.50
2018-12-16T09:10:17.394Z,91.20
2018-12-16T09:12:46.439Z,91.00
2018-12-16T09:15:17.447Z,90.00
2018-12-16T09:17:46.801Z,90.10
2018-12-16T09:20:15.829Z,90.10
2018-12-16T09:22:44.872Z,90.50
2018-12-16T09:25:14.031Z,90.30
2018-12-16T09:27:43.161Z,89.50
2018-12-16T09:30:12.598Z,90.40
2018-12-16T09:32:41.691Z,90.30
2018-12-16T09:35:10.685Z,90.10
2018-12-16T09:37:39.829Z,89.50
2018-12-16T09:40:09.148Z,90.40
2018-12-16T09:42:38.269Z,90.30
2018-12-16T09:45:07.666Z,89.80
2018-12-16T09:47:36.977Z,89.90
2018-12-16T09:50:06.653Z,89.70
2018-12-16T09:52:35.707Z,90.20
2018-12-16T09:55:05.733Z,90.50
2018-12-16T09:57:34.835Z,90.80
2018-12-16T10:00:05.524Z,90.40
2018-12-16T10:02:34.837Z,90.20
2018-12-16T10:05:04.663Z,90.20
2018-12-16T10:07:34.010Z,90.50
2018-12-16T10:10:03.130Z,90.50
2018-12-16T10:12:32.146Z,91.80
2018-12-16T10:15:02.275Z,92.10
2018-12-16T10:17:31.378Z,91.40
2018-12-16T10:20:00.433Z,92.10
2018-12-16T10:22:29.442Z,92.10
2018-12-16T10:24:58.449Z,91.60
2018-12-16T10:27:27.515Z,92.20
2018-12-16T10:29:56.684Z,92.00
2018-12-16T10:32:25.830Z,92.10
2018-12-16T10:34:55.070Z,91.90
2018-12-16T10:37:24.161Z,91.80
2018-12-16T10:39:53.189Z,92.00
2018-12-16T10:42:23.061Z,91.80
2018-12-16T10:44:52.343Z,91.90
2018-12-16T10:47:21.593Z,92.40
2018-12-16T10:49:50.893Z,92.30
2018-12-16T10:52:19.886Z,92.90
2018-12-16T10:54:50.728Z,92.20
2018-12-16T10:57:19.750Z,91.80
2018-12-16T10:59:48.850Z,92.30
2018-12-16T11:02:17.939Z,92.10
2018-12-16T11:04:47.342Z,91.70
2018-12-16T11:07:16.523Z,92.30
2018-12-16T11:09:45.539Z,92.00
2018-12-16T11:14:58.605Z,92.10
2018-12-16T11:17:28.250Z,91.90
2018-12-16T11:19:57.541Z,91.80
2018-12-16T11:22:33.046Z,91.90
2018-12-16T11:25:05.607Z,91.40
2018-12-16T11:27:33.371Z,91.40
2018-12-16T11:30:02.452Z,91.00
2018-12-16T11:32:32.046Z,91.20
2018-12-16T11:35:01.301Z,91.00
2018-12-16T11:37:30.520Z,91.00
2018-12-16T11:39:59.614Z,91.40
2018-12-16T11:42:28.622Z,91.60
2018-12-16T11:44:57.668Z,91.00
2018-12-16T11:47:26.806Z,91.60
2018-12-16T11:49:55.871Z,91.40
2018-12-16T11:52:25.057Z,90.90
2018-12-16T11:54:54.186Z,91.30
2018-12-16T11:57:23.217Z,91.30
2018-12-16T11:59:52.367Z,91.50
2018-12-16T12:02:21.455Z,91.20
2018-12-16T12:04:52.528Z,91.50
2018-12-16T12:07:21.559Z,91.50
2018-12-16T12:09:50.566Z,91.80
2018-12-16T12:12:19.624Z,92.00
2018-12-16T12:14:48.638Z,92.20
2018-12-16T12:17:17.642Z,92.00
2018-12-16T12:19:46.936Z,92.60
2018-12-16T12:22:16.065Z,92.30
2018-12-16T12:24:45.125Z,92.90
2018-12-16T12:27:14.253Z,92.60
2018-12-16T12:29:43.277Z,92.80
2018-12-16T12:32:12.322Z,92.70
2018-12-16T12:34:41.340Z,92.90
2018-12-16T12:37:10.416Z,92.70
2018-12-16T12:39:40.309Z,92.90
2018-12-16T12:42:09.632Z,93.00
2018-12-16T12:44:38.669Z,93.50
2018-12-16T12:47:07.750Z,92.90
2018-12-16T12:49:36.901Z,93.00
2018-12-16T12:52:06.005Z,93.20
2018-12-16T12:54:35.197Z,93.20
2018-12-16T12:57:04.283Z,93.40
2018-12-16T12:59:33.549Z,93.30
2018-12-16T13:02:03.645Z,93.00
2018-12-16T13:04:33.355Z,93.00
2018-12-16T13:07:02.402Z,93.20
2018-12-16T13:09:31.607Z,92.80
2018-12-16T13:12:00.692Z,93.30
2018-12-16T13:14:29.834Z,92.60
2018-12-16T13:16:59.016Z,93.00
2018-12-16T13:19:29.699Z,92.90
2018-12-16T13:22:01.027Z,93.50
2018-12-16T13:24:30.252Z,93.00
2018-12-16T13:26:59.364Z,93.40
2018-12-16T13:29:28.469Z,94.40
2018-12-16T13:31:57.484Z,94.00
2018-12-16T13:34:26.534Z,93.90
2018-12-16T13:36:55.603Z,93.30
2018-12-16T13:39:24.611Z,93.70
2018-12-16T13:41:53.705Z,94.10
2018-12-16T13:44:22.743Z,93.80
2018-12-16T13:46:51.815Z,94.40
2018-12-16T13:49:20.836Z,93.00
2018-12-16T13:51:49.881Z,93.60
2018-12-16T13:54:19.364Z,93.50
2018-12-16T13:56:48.442Z,93.60
2018-12-16T13:59:17.470Z,93.80
2018-12-16T14:01:46.638Z,93.60
2018-12-16T14:04:16.000Z,93.50
2018-12-16T14:06:45.056Z,93.70
2018-12-16T14:09:15.203Z,93.10
2018-12-16T14:11:44.499Z,93.50
2018-12-16T14:14:13.569Z,93.70
2018-12-16T14:16:42.607Z,94.30
2018-12-16T14:19:11.663Z,93.70
2018-12-16T14:21:41.015Z,93.90
2018-12-16T14:24:10.404Z,94.40
2018-12-16T14:26:39.454Z,93.50
2018-12-16T14:29:08.481Z,94.10
2018-12-16T14:31:37.647Z,94.30
2018-12-16T14:34:08.349Z,93.70
2018-12-16T14:36:37.455Z,93.70
2018-12-16T14:39:07.858Z,93.70
2018-12-16T14:41:38.898Z,93.40
2018-12-16T14:44:07.889Z,93.90
2018-12-16T14:46:36.958Z,93.80
2018-12-16T14:49:06.034Z,93.70
2018-12-16T14:51:35.287Z,93.50
2018-12-16T14:54:04.539Z,93.70
2018-12-16T14:56:33.646Z,93.80
2018-12-16T14:59:02.789Z,93.80
2018-12-16T15:01:32.036Z,93.60
2018-12-16T15:04:01.073Z,93.70
2018-12-16T15:06:31.442Z,93.50
2018-12-16T15:09:00.521Z,94.20
2018-12-16T15:11:31.727Z,92.90
2018-12-16T15:14:01.175Z,93.50
2018-12-16T15:16:30.363Z,93.30
2018-12-16T15:18:59.615Z,93.30
2018-12-16T15:21:28.660Z,93.40
2018-12-16T15:23:57.853Z,93.40
2018-12-16T15:26:27.219Z,93.70
2018-12-16T15:28:56.267Z,93.70
2018-12-16T15:31:25.554Z,93.50
2018-12-16T15:33:55.796Z,93.70
2018-12-16T15:36:24.929Z,93.40
2018-12-16T15:38:54.201Z,93.80
2018-12-16T15:41:24.555Z,93.00
2018-12-16T15:43:53.642Z,93.00
2018-12-16T15:46:22.717Z,93.20
2018-12-16T15:48:51.877Z,92.90
2018-12-16T15:51:20.941Z,92.80
2018-12-16T15:53:50.342Z,92.90
2018-12-16T15:56:19.747Z,93.30
2018-12-16T15:58:48.889Z,93.40
2018-12-16T16:01:18.541Z,93.10
2018-12-16T16:03:54.515Z,92.80
2018-12-16T16:06:23.582Z,92.80
2018-12-16T16:08:52.726Z,92.80
2018-12-16T16:11:21.818Z,92.80
2018-12-16T16:13:51.526Z,92.80
2018-12-16T16:16:20.642Z,92.80
2018-12-16T16:18:49.724Z,92.70
2018-12-16T16:21:18.873Z,93.00
2018-12-16T16:23:50.502Z,93.10
2018-12-16T16:26:19.558Z,93.40
2018-12-16T16:28:48.728Z,93.20
2018-12-16T16:31:17.910Z,93.10
2018-12-16T16:33:47.350Z,92.60
2018-12-16T16:36:16.467Z,92.70
2018-12-16T16:38:46.118Z,92.70
2018-12-16T16:41:15.242Z,92.60
2018-12-16T16:43:44.387Z,92.90
2018-12-16T16:46:13.472Z,93.10
2018-12-16T16:48:42.608Z,92.70
2018-12-16T16:51:12.004Z,92.60
2018-12-16T16:53:41.275Z,92.80
2018-12-16T16:56:10.358Z,92.50
2018-12-16T16:58:39.833Z,92.90
2018-12-16T17:01:09.463Z,92.70
2018-12-16T17:03:38.557Z,92.80
2018-12-16T17:06:10.898Z,92.80
2018-12-16T17:08:40.082Z,92.90
2018-12-16T17:11:09.792Z,92.70
2018-12-16T17:13:38.830Z,92.80
2018-12-16T17:16:08.373Z,92.50
2018-12-16T17:18:37.992Z,92.70
2018-12-16T17:21:07.506Z,92.60
2018-12-16T17:23:36.935Z,92.80
2018-12-16T17:26:06.110Z,92.40
2018-12-16T17:28:35.286Z,92.50
2018-12-16T17:31:04.371Z,92.60
2018-12-16T17:33:33.808Z,92.70
2018-12-16T17:36:03.412Z,92.80
2018-12-16T17:38:32.711Z,92.60
2018-12-16T17:41:01.941Z,92.40
2018-12-16T17:43:31.370Z,92.30
2018-12-16T17:46:00.382Z,92.60
2018-12-16T17:48:29.461Z,92.50
2018-12-16T17:50:58.550Z,92.40
2018-12-16T17:53:27.902Z,92.40
2018-12-16T17:55:57.535Z,92.70
2018-12-16T17:58:27.018Z,92.30
2018-12-16T18:00:56.374Z,92.40
2018-12-16T18:03:25.722Z,92.10
2018-12-16T18:05:54.816Z,92.40
2018-12-16T18:08:24.004Z,92.30
2018-12-16T18:10:53.098Z,92.20
2018-12-16T18:13:22.204Z,92.10
2018-12-16T18:15:51.264Z,92.10
2018-12-16T18:18:20.305Z,92.20
2018-12-16T18:20:49.367Z,92.40
2018-12-16T18:23:18.870Z,91.90
2018-12-16T18:25:47.986Z,92.00
2018-12-16T18:28:17.015Z,92.40
2018-12-16T18:30:46.157Z,92.20
2018-12-16T18:33:15.490Z,92.10
2018-12-16T18:35:44.525Z,92.10
2018-12-16T18:38:20.036Z,92.00
2018-12-16T18:40:49.135Z,92.40
2018-12-16T18:43:18.201Z,92.50
2018-12-16T18:45:47.238Z,92.20
2018-12-16T18:48:16.493Z,92.20
2018-12-16T18:50:45.565Z,92.10
2018-12-16T18:53:15.832Z,91.80
2018-12-16T18:55:45.329Z,92.20
2018-12-16T18:58:14.540Z,92.60
2018-12-16T19:00:43.573Z,92.00
2018-12-16T19:03:12.613Z,92.00
2018-12-16T19:05:41.666Z,92.00
2018-12-16T19:08:11.292Z,91.90
2018-12-16T19:10:40.482Z,91.90
2018-12-16T19:13:09.676Z,91.90
2018-12-16T19:15:38.748Z,91.90
2018-12-16T19:18:07.875Z,91.70
2018-12-16T19:20:37.130Z,91.60
2018-12-16T19:23:06.875Z,92.10
2018-12-16T19:25:36.309Z,92.10
2018-12-16T19:28:05.648Z,92.00
2018-12-16T19:30:35.044Z,92.00
2018-12-16T19:33:06.409Z,91.50
2018-12-16T19:35:35.740Z,91.80
2018-12-16T19:38:05.253Z,92.20
2018-12-16T19:40:34.625Z,91.60
2018-12-16T19:43:04.052Z,91.40
2018-12-16T19:45:33.264Z,91.70
2018-12-16T19:48:02.473Z,91.50
2018-12-16T19:50:31.872Z,91.80
2018-12-16T19:53:01.091Z,91.90
2018-12-16T19:55:30.160Z,91.70
2018-12-16T19:57:59.680Z,92.10
2018-12-16T20:00:28.774Z,92.00
2018-12-16T20:02:58.623Z,91.30
2018-12-16T20:05:27.985Z,91.40
2018-12-16T20:07:57.093Z,91.50
2018-12-16T20:10:26.155Z,91.70
2018-12-16T20:12:55.469Z,91.90
2018-12-16T20:15:24.777Z,91.30
2018-12-16T20:17:54.118Z,91.80
2018-12-16T20:20:23.457Z,91.80
2018-12-16T20:22:52.564Z,91.80
2018-12-16T20:25:21.586Z,91.80
2018-12-16T20:27:50.942Z,91.70
2018-12-16T20:30:20.023Z,91.60
2018-12-16T20:32:49.262Z,91.30
2018-12-16T20:35:19.339Z,91.20
2018-12-16T20:37:49.144Z,91.40
2018-12-16T20:40:18.210Z,91.30
2018-12-16T20:42:47.474Z,91.30
2018-12-16T20:45:16.542Z,92.20
2018-12-16T20:47:45.708Z,91.80
2018-12-16T20:50:14.806Z,91.50
2018-12-16T20:52:43.864Z,91.10
2018-12-16T20:55:13.200Z,90.70
2018-12-16T20:57:42.268Z,91.30
2018-12-16T21:00:11.759Z,90.70
2018-12-16T21:02:40.943Z,90.80
2018-12-16T21:05:10.192Z,90.90
2018-12-16T21:07:39.785Z,90.80
2018-12-16T21:10:09.046Z,91.20
2018-12-16T21:14:45.378Z,90.30
2018-12-16T21:19:21.308Z,90.40
2018-12-16T21:21:50.503Z,90.40
2018-12-16T21:24:20.335Z,90.20
2018-12-16T21:26:49.619Z,90.40
2018-12-16T21:29:18.637Z,90.30
2018-12-16T21:31:47.703Z,89.30
2018-12-16T21:34:16.723Z,88.90
2018-12-16T21:36:45.971Z,88.30
2018-12-16T21:39:15.465Z,88.70
2018-12-16T21:41:45.601Z,88.00
2018-12-16T21:44:14.850Z,87.30
2018-12-16T21:46:43.939Z,86.20
2018-12-16T21:49:13.043Z,84.20
2018-12-16T21:51:42.490Z,85.50
2018-12-16T21:54:11.609Z,84.70
2018-12-16T21:56:47.082Z,85.60
2018-12-16T21:59:16.188Z,85.60
2018-12-16T22:01:45.222Z,86.70
2018-12-16T22:04:14.318Z,85.40
2018-12-16T22:06:43.693Z,86.70
2018-12-16T22:09:12.759Z,86.30
2018-12-16T22:11:41.857Z,86.50
2018-12-16T22:14:11.026Z,86.40
2018-12-16T22:16:40.033Z,86.60
2018-12-16T22:19:09.578Z,86.70
2018-12-16T22:21:38.574Z,86.00
2018-12-16T22:24:07.615Z,85.70
2018-12-16T22:26:36.673Z,87.00
2018-12-16T22:29:05.790Z,84.70
2018-12-16T22:31:34.876Z,85.70
2018-12-16T22:34:04.380Z,84.70
2018-12-16T22:36:33.419Z,84.40
2018-12-16T22:39:02.986Z,85.90
2018-12-16T22:41:34.162Z,85.70
2018-12-16T22:44:03.331Z,86.50
2018-12-16T22:46:32.823Z,87.00
2018-12-16T22:49:01.882Z,87.60
2018-12-16T22:51:30.966Z,87.10
2018-12-16T22:53:59.958Z,87.40
2018-12-16T22:56:29.002Z,87.90
2018-12-16T22:58:58.070Z,87.20
2018-12-16T23:01:27.224Z,88.30
2018-12-16T23:03:56.519Z,87.70
2018-12-16T23:06:25.598Z,86.80
2018-12-16T23:08:54.664Z,87.20
2018-12-16T23:11:23.674Z,85.90
2018-12-16T23:13:54.830Z,87.20
2018-12-16T23:16:23.904Z,85.60
2018-12-16T23:18:53.285Z,85.30
2018-12-16T23:21:22.331Z,85.40
2018-12-16T23:23:51.373Z,85.30
2018-12-16T23:26:20.588Z,85.20
2018-12-16T23:28:49.589Z,84.50
2018-12-16T23:31:18.730Z,83.70
2018-12-16T23:33:47.739Z,84.20
2018-12-16T23:36:17.259Z,83.00
2018-12-16T23:38:46.267Z,82.40
2018-12-16T23:41:15.852Z,84.10
2018-12-16T23:43:45.108Z,83.30
2018-12-16T23:46:14.152Z,84.10
2018-12-16T23:48:43.197Z,84.20
2018-12-16T23:51:12.206Z,84.00
2018-12-16T23:53:41.334Z,81.70
2018-12-16T23:56:18.669Z,81.00
2018-12-16T23:58:47.809Z,80.60
